Time;durP1;ratioP1;P1;durP2;ratioP2;P2;SDS_P1;SDS_P2;PMS_P1;PMS_P2;Temp;Humidity;BMP_temperature;BMP_pressure;BME280_temperature;BME280_humidity;BME280_pressure;Samples;Min_cycle;Max_cycle;Signal;HPM_P1;HPM_P2
2021/04/29 00:01:47;;;;;;;15.15;11.38;;;307.30;2304.00;;;;;;4925705;29;20127;-91
2021/04/29 00:04:14;;;;;;;16.73;11.50;;;307.30;2304.00;;;;;;4926577;29;20123;-90
2021/04/29 00:06:40;;;;;;;17.35;12.25;;;307.30;2304.00;;;;;;4922142;29;20036;-92
2021/04/29 00:09:06;;;;;;;17.17;11.80;;;307.20;2304.00;;;;;;4937186;29;20032;-90
2021/04/29 00:11:33;;;;;;;14.88;11.15;;;307.30;2304.00;;;;;;4943988;29;20024;-91
2021/04/29 00:14:00;;;;;;;13.55;10.05;;;307.30;2304.00;;;;;;4952980;29;20035;-91
2021/04/29 00:16:26;;;;;;;14.15;10.00;;;307.30;2304.00;;;;;;4962723;29;20091;-91
2021/04/29 00:18:52;;;;;;;12.15;9.43;;;307.20;2304.00;;;;;;4951177;29;20028;-92
2021/04/29 00:21:18;;;;;;;15.40;9.85;;;307.20;2304.00;;;;;;4943772;29;20028;-89
2021/04/29 00:23:43;;;;;;;11.98;10.15;;;307.40;2304.00;;;;;;4943486;29;20040;-88
2021/04/29 00:26:09;;;;;;;17.08;11.48;;;307.30;2304.00;;;;;;4952160;29;20051;-92
2021/04/29 00:28:35;;;;;;;18.90;12.18;;;307.30;2304.00;;;;;;4949991;29;20079;-91
2021/04/29 00:31:01;;;;;;;14.13;10.88;;;307.20;2304.00;;;;;;4944361;29;20098;-91
2021/04/29 00:33:26;;;;;;;14.13;11.32;;;307.20;2304.00;;;;;;4941390;29;20039;-91
2021/04/29 00:35:52;;;;;;;18.02;12.23;;;307.30;2304.00;;;;;;4942069;29;20047;-91
2021/04/29 00:38:18;;;;;;;17.08;12.20;;;282.50;2278.40;;;;;;4942405;29;20059;-91
2021/04/29 00:40:45;;;;;;;15.70;12.50;;;282.50;2278.40;;;;;;4942126;29;20511;-91
2021/04/29 00:43:14;;;;;;;22.13;12.75;;;282.30;2278.40;;;;;;4938638;29;20091;-91
2021/04/29 00:45:40;;;;;;;19.77;13.27;;;282.30;2278.40;;;;;;4921260;29;20397;-91
2021/04/29 00:48:07;;;;;;;19.02;10.93;;;282.30;2278.40;;;;;;4944146;29;20052;-91
2021/04/29 00:50:32;;;;;;;16.65;11.10;;;282.40;2278.40;;;;;;4926102;29;20040;-90
2021/04/29 00:52:58;;;;;;;13.27;10.35;;;282.40;2278.40;;;;;;4931420;29;20085;-91
2021/04/29 00:55:24;;;;;;;16.70;11.38;;;282.30;2278.40;;;;;;4932952;29;20112;-91
2021/04/29 00:57:50;;;;;;;15.00;10.23;;;282.20;2278.40;;;;;;4926131;29;20036;-91
2021/04/29 01:00:16;;;;;;;16.60;10.07;;;282.20;2278.40;;;;;;4931538;29;20043;-90
2021/04/29 01:02:51;;;;;;;13.10;10.68;;;282.30;2278.40;;;;;;4922727;29;20090;-91
2021/04/29 01:05:24;;;;;;;13.95;9.48;;;282.40;2278.40;;;;;;4924236;29;20036;-90
2021/04/29 01:08:07;;;;;;;13.88;9.25;;;282.30;2278.40;;;;;;4942259;29;20048;-90
2021/04/29 01:10:41;;;;;;;15.25;9.75;;;282.30;2278.40;;;;;;4945623;29;20185;-91
2021/04/29 01:13:28;;;;;;;14.18;9.60;;;282.40;2278.40;;;;;;4939164;29;20032;-91
2021/04/29 01:15:54;;;;;;;14.52;9.90;;;282.40;2278.40;;;;;;4939301;29;20122;-91
2021/04/29 01:18:23;;;;;;;13.05;9.85;;;282.20;2278.40;;;;;;4924771;29;20433;-91
2021/04/29 01:21:12;;;;;;;15.20;11.48;;;282.20;2278.40;;;;;;4919341;29;20047;-87
2021/04/29 01:23:44;;;;;;;14.43;10.60;;;282.20;2278.40;;;;;;4919225;29;20398;-91
2021/04/29 01:26:32;;;;;;;14.88;10.27;;;282.30;2278.40;;;;;;4919083;29;20425;-91
2021/04/29 01:29:03;;;;;;;13.65;10.10;;;282.30;2278.40;;;;;;4918648;29;20281;-91
2021/04/29 01:31:31;;;;;;;14.38;10.70;;;282.30;2278.40;;;;;;4918636;29;20028;-91
2021/04/29 01:34:03;;;;;;;14.27;9.77;;;282.20;2278.40;;;;;;4931762;29;20035;-91
2021/04/29 01:36:30;;;;;;;12.55;9.82;;;282.20;2278.40;;;;;;4937855;29;20035;-91
2021/04/29 01:38:57;;;;;;;13.13;10.38;;;282.30;2278.40;;;;;;4937433;29;20099;-91
2021/04/29 01:41:24;;;;;;;16.30;10.02;;;282.40;2278.40;;;;;;4936868;29;20480;-91
2021/04/29 01:43:51;;;;;;;15.57;10.65;;;282.30;2278.40;;;;;;4937622;29;20130;-92
2021/04/29 01:46:18;;;;;;;14.25;10.40;;;282.20;2278.40;;;;;;4937806;29;20031;-92
2021/04/29 01:48:44;;;;;;;13.80;10.25;;;282.20;2278.40;;;;;;4950203;29;20095;-90
2021/04/29 01:51:11;;;;;;;14.65;9.82;;;282.10;2278.40;;;;;;4947365;29;20031;-90
2021/04/29 01:53:38;;;;;;;16.90;11.38;;;282.10;2278.40;;;;;;4946761;29;20055;-89
2021/04/29 01:56:04;;;;;;;13.27;9.95;;;282.00;2278.40;;;;;;4942573;29;20063;-92
2021/04/29 01:58:30;;;;;;;14.85;11.63;;;282.00;2278.40;;;;;;4937289;29;20082;-91
2021/04/29 02:00:56;;;;;;;15.80;11.05;;;282.00;2278.40;;;;;;4937351;29;20535;-91
2021/04/29 02:03:21;;;;;;;20.35;13.63;;;282.00;2278.40;;;;;;4937368;29;20107;-91
2021/04/29 02:05:47;;;;;;;14.85;10.48;;;282.10;2278.40;;;;;;4937089;29;20043;-91
2021/04/29 02:08:13;;;;;;;17.63;11.35;;;282.10;2278.40;;;;;;4937292;29;20143;-90
2021/04/29 02:10:39;;;;;;;20.02;13.25;;;282.00;2278.40;;;;;;4937004;29;20063;-91
2021/04/29 02:13:12;;;;;;;22.40;14.48;;;281.80;2278.40;;;;;;4938829;29;20544;-91
2021/04/29 02:15:41;;;;;;;15.55;11.27;;;281.80;2278.40;;;;;;4938980;29;20578;-91
2021/04/29 02:18:18;;;;;;;16.75;10.73;;;281.70;2278.40;;;;;;4939149;29;20042;-91
2021/04/29 02:20:46;;;;;;;18.10;11.80;;;281.90;2278.40;;;;;;4940891;29;20111;-90
2021/04/29 02:23:17;;;;;;;19.00;12.90;;;281.90;2278.40;;;;;;4940759;29;20054;-90
2021/04/29 02:25:50;;;;;;;18.00;12.02;;;281.90;2278.40;;;;;;4939982;29;20034;-92
2021/04/29 02:28:17;;;;;;;19.65;13.48;;;281.90;2278.40;;;;;;4939459;29;20139;-91
2021/04/29 02:30:43;;;;;;;23.77;15.32;;;281.90;2278.40;;;;;;4939316;29;20035;-91
2021/04/29 02:33:11;;;;;;;25.05;16.27;;;281.80;2278.40;;;;;;4937315;29;20036;-91
2021/04/29 02:35:37;;;;;;;25.02;15.02;;;281.80;2278.40;;;;;;4937362;29;20032;-90
2021/04/29 02:38:03;;;;;;;24.33;15.77;;;281.90;2278.40;;;;;;4937316;29;20035;-91
2021/04/29 02:40:30;;;;;;;25.63;15.65;;;281.90;2278.40;;;;;;4937012;29;20036;-90
2021/04/29 02:42:56;;;;;;;25.88;15.20;;;282.10;2278.40;;;;;;4936877;29;20036;-90
2021/04/29 02:45:23;;;;;;;27.17;15.38;;;282.00;2278.40;;;;;;4937250;29;20028;-91
2021/04/29 02:47:51;;;;;;;26.67;15.90;;;282.00;2278.40;;;;;;4936472;29;20520;-91
2021/04/29 02:50:22;;;;;;;23.80;14.52;;;281.70;2278.40;;;;;;4937063;29;20031;-91
2021/04/29 02:52:51;;;;;;;24.17;13.52;;;281.90;2278.40;;;;;;4937657;29;20055;-91
2021/04/29 02:55:18;;;;;;;24.52;15.55;;;281.90;2278.40;;;;;;4944229;29;20051;-91
2021/04/29 02:57:43;;;;;;;24.05;14.52;;;282.00;2278.40;;;;;;4941484;29;20042;-91
2021/04/29 03:00:13;;;;;;;25.90;15.55;;;282.00;2278.40;;;;;;4936827;29;20122;-90
2021/04/29 03:02:43;;;;;;;27.67;14.40;;;282.00;2278.40;;;;;;4936313;29;20062;-91
2021/04/29 03:05:12;;;;;;;26.63;16.08;;;281.90;2278.40;;;;;;4936511;29;20059;-91
2021/04/29 03:07:38;;;;;;;23.70;14.90;;;281.70;2278.40;;;;;;4936203;29;20099;-91
2021/04/29 03:10:09;;;;;;;25.55;15.00;;;256.90;2252.80;;;;;;4935842;29;20042;-91
2021/04/29 03:12:35;;;;;;;32.05;15.05;;;281.60;2278.40;;;;;;4936153;29;20118;-91
2021/04/29 03:15:01;;;;;;;25.00;15.85;;;281.60;2278.40;;;;;;4936228;29;20035;-91
2021/04/29 03:17:27;;;;;;;25.65;15.77;;;281.80;2278.40;;;;;;4921420;29;20041;-90
2021/04/29 03:19:53;;;;;;;31.52;15.43;;;281.80;2278.40;;;;;;4917068;29;20040;-91
2021/04/29 03:22:19;;;;;;;26.05;14.75;;;281.70;2278.40;;;;;;4931434;29;20055;-91
2021/04/29 03:24:45;;;;;;;29.70;16.25;;;281.70;2278.40;;;;;;4935962;29;20102;-91
2021/04/29 03:27:11;;;;;;;27.02;16.90;;;281.70;2278.40;;;;;;4936527;29;20393;-91
2021/04/29 03:29:37;;;;;;;27.88;15.60;;;281.70;2278.40;;;;;;4938244;29;20038;-92
2021/04/29 03:32:04;;;;;;;30.45;16.98;;;281.70;2278.40;;;;;;4936550;29;20035;-91
2021/04/29 03:34:31;;;;;;;24.95;15.50;;;281.80;2278.40;;;;;;4937363;29;20467;-91
2021/04/29 03:36:57;;;;;;;29.42;17.27;;;281.70;2278.40;;;;;;4940795;29;20552;-91
2021/04/29 03:39:22;;;;;;;27.17;16.45;;;281.90;2278.40;;;;;;4945781;29;20023;-91
2021/04/29 03:41:48;;;;;;;30.33;15.60;;;281.90;2278.40;;;;;;4959836;29;20067;-91
2021/04/29 03:44:14;;;;;;;33.67;17.60;;;281.80;2278.40;;;;;;4958910;29;20095;-89
2021/04/29 03:46:39;;;;;;;33.83;15.18;;;282.00;2278.40;;;;;;4959542;29;20024;-86
2021/04/29 03:49:05;;;;;;;27.17;15.93;;;282.00;2278.40;;;;;;4953776;29;20078;-90
2021/04/29 03:51:31;;;;;;;35.20;17.52;;;282.00;2278.40;;;;;;4947199;29;20380;-91
2021/04/29 03:53:58;;;;;;;29.30;15.05;;;281.90;2278.40;;;;;;4937298;29;20111;-91
2021/04/29 03:56:24;;;;;;;26.13;16.17;;;281.80;2278.40;;;;;;4936646;29;20043;-91
2021/04/29 03:58:50;;;;;;;36.15;18.45;;;281.70;2278.40;;;;;;4936875;29;20036;-91
2021/04/29 04:01:15;;;;;;;45.25;21.15;;;281.90;2278.40;;;;;;4936340;29;20071;-90
2021/04/29 04:03:41;;;;;;;46.08;22.42;;;282.00;2278.40;;;;;;4935908;29;20400;-90
2021/04/29 04:06:08;;;;;;;51.28;25.38;;;282.10;2278.40;;;;;;4938204;29;20115;-90
2021/04/29 04:08:33;;;;;;;43.80;24.70;;;282.10;2278.40;;;;;;4929185;29;20054;-91
2021/04/29 04:10:59;;;;;;;47.20;24.10;;;282.00;2278.40;;;;;;4920368;29;20039;-91
2021/04/29 04:13:25;;;;;;;33.70;19.65;;;282.00;2278.40;;;;;;4922035;29;20048;-91
2021/04/29 04:15:51;;;;;;;37.28;21.98;;;282.10;2278.40;;;;;;4926301;29;20138;-91
2021/04/29 04:18:17;;;;;;;33.00;17.88;;;282.10;2278.40;;;;;;4920412;29;20036;-91
2021/04/29 04:20:43;;;;;;;28.52;17.38;;;282.00;2278.40;;;;;;4919580;29;20036;-92
2021/04/29 04:23:09;;;;;;;25.15;17.77;;;282.00;2278.40;;;;;;4920014;29;20064;-91
2021/04/29 04:25:36;;;;;;;24.00;16.02;;;281.90;2278.40;;;;;;4919728;29;20044;-91
2021/04/29 04:28:02;;;;;;;29.40;17.08;;;281.90;2278.40;;;;;;4919586;29;20099;-90
2021/04/29 04:30:28;;;;;;;28.88;18.27;;;281.70;2278.40;;;;;;4922818;29;20044;-91
2021/04/29 04:32:54;;;;;;;27.63;17.63;;;281.70;2278.40;;;;;;4924173;29;20380;-91
2021/04/29 04:35:21;;;;;;;25.95;16.73;;;281.80;2278.40;;;;;;4919993;29;20043;-90
2021/04/29 04:37:47;;;;;;;29.85;17.33;;;282.20;2278.40;;;;;;4920745;29;20028;-90
2021/04/29 04:40:13;;;;;;;29.10;16.48;;;282.00;2278.40;;;;;;4939597;29;20047;-90
2021/04/29 04:42:40;;;;;;;30.35;20.00;;;282.10;2278.40;;;;;;4939272;29;20385;-91
2021/04/29 04:45:07;;;;;;;28.90;17.02;;;281.90;2278.40;;;;;;4938954;29;20032;-90
2021/04/29 04:47:33;;;;;;;30.48;17.42;;;282.10;2278.40;;;;;;4938673;29;20159;-91
2021/04/29 04:49:59;;;;;;;27.08;17.90;;;282.10;2278.40;;;;;;4938712;29;20042;-91
2021/04/29 04:52:25;;;;;;;32.78;19.20;;;282.10;2278.40;;;;;;4935097;29;20043;-91
2021/04/29 04:54:52;;;;;;;28.95;19.50;;;282.10;2278.40;;;;;;4919316;29;20052;-90
2021/04/29 04:57:18;;;;;;;41.13;23.35;;;282.10;2278.40;;;;;;4922262;29;20585;-89
2021/04/29 04:59:44;;;;;;;38.40;22.48;;;282.10;2278.40;;;;;;4926570;29;20064;-90
2021/04/29 05:02:10;;;;;;;40.65;21.65;;;282.10;2278.40;;;;;;4945106;29;20036;-89
2021/04/29 05:04:37;;;;;;;40.53;22.65;;;282.10;2278.40;;;;;;4944842;29;20086;-91
2021/04/29 05:07:06;;;;;;;31.10;20.58;;;282.10;2278.40;;;;;;4948907;29;20047;-90
2021/04/29 05:09:33;;;;;;;36.22;21.50;;;282.20;2278.40;;;;;;4958787;29;20022;-90
2021/04/29 05:11:59;;;;;;;31.65;18.95;;;282.20;2278.40;;;;;;4958582;29;20039;-89
2021/04/29 05:14:27;;;;;;;37.92;19.98;;;282.30;2278.40;;;;;;4954728;29;20047;-89
2021/04/29 05:16:52;;;;;;;35.25;20.13;;;282.30;2278.40;;;;;;4930629;29;20104;-90
2021/04/29 05:19:18;;;;;;;33.92;21.15;;;282.30;2278.40;;;;;;4952249;29;20039;-88
2021/04/29 05:21:44;;;;;;;29.45;17.17;;;282.40;2278.40;;;;;;4945678;29;20032;-88
2021/04/29 05:24:10;;;;;;;29.10;19.00;;;282.40;2278.40;;;;;;4939667;29;20055;-89
2021/04/29 05:26:35;;;;;;;35.50;21.42;;;282.30;2278.40;;;;;;4937814;29;20040;-88
2021/04/29 05:29:02;;;;;;;37.17;20.65;;;281.90;2278.40;;;;;;4938115;29;20117;-88
2021/04/29 05:31:28;;;;;;;31.25;19.63;;;281.90;2278.40;;;;;;4937968;29;20043;-88
2021/04/29 05:33:54;;;;;;;33.40;18.90;;;282.00;2278.40;;;;;;4937939;29;20044;-89
2021/04/29 05:36:20;;;;;;;35.92;21.70;;;282.30;2278.40;;;;;;4937537;29;20043;-88
2021/04/29 05:38:45;;;;;;;38.80;20.42;;;282.40;2278.40;;;;;;4937780;29;20039;-88
2021/04/29 05:41:12;;;;;;;34.92;20.17;;;307.20;2304.00;;;;;;4938915;29;20039;-87
2021/04/29 05:43:38;;;;;;;32.72;18.85;;;307.30;2304.00;;;;;;4937786;29;20036;-88
2021/04/29 05:46:04;;;;;;;34.53;19.33;;;307.30;2304.00;;;;;;4938023;29;20495;-88
2021/04/29 05:48:30;;;;;;;32.28;18.02;;;307.30;2304.00;;;;;;4937574;29;20039;-88
2021/04/29 05:50:57;;;;;;;31.92;18.00;;;307.40;2304.00;;;;;;4938257;29;20103;-88
2021/04/29 05:53:23;;;;;;;27.25;18.05;;;307.30;2304.00;;;;;;4942678;29;20512;-88
2021/04/29 05:55:49;;;;;;;29.02;18.95;;;307.20;2304.00;;;;;;4941979;29;20047;-88
2021/04/29 05:58:14;;;;;;;30.35;20.02;;;282.40;2278.40;;;;;;4938272;29;20050;-87
2021/04/29 06:00:40;;;;;;;35.55;19.42;;;307.20;2304.00;;;;;;4937356;29;20036;-88
2021/04/29 06:03:06;;;;;;;27.55;18.83;;;307.30;2304.00;;;;;;4937352;29;20032;-88
2021/04/29 06:05:32;;;;;;;36.25;18.73;;;307.40;2304.00;;;;;;4937517;29;20046;-88
2021/04/29 06:08:00;;;;;;;32.35;20.25;;;307.60;2304.00;;;;;;4937117;29;20498;-86
2021/04/29 06:10:26;;;;;;;29.85;19.05;;;307.70;2304.00;;;;;;4936751;29;20055;-86
2021/04/29 06:12:52;;;;;;;28.73;18.70;;;307.40;2304.00;;;;;;4936820;29;20040;-86
2021/04/29 06:15:18;;;;;;;35.92;20.63;;;307.50;2304.00;;;;;;4937033;29;20050;-87
2021/04/29 06:17:45;;;;;;;33.38;20.40;;;307.70;2304.00;;;;;;4934081;29;20465;-86
2021/04/29 06:20:12;;;;;;;28.45;18.33;;;307.90;2304.00;;;;;;4936322;29;20389;-87
2021/04/29 06:22:38;;;;;;;33.42;20.67;;;308.00;2304.00;;;;;;4937410;29;20571;-86
2021/04/29 06:25:08;;;;;;;30.52;20.13;;;308.10;2304.00;;;;;;4936512;29;20027;-88
2021/04/29 06:27:35;;;;;;;25.95;15.57;;;308.00;2304.00;;;;;;4936963;29;20404;-85
2021/04/29 06:30:02;;;;;;;67.72;43.97;;;333.00;2329.60;;;;;;4937644;29;20054;-92
2021/04/29 06:32:28;;;;;;;33.25;19.80;;;333.10;2329.60;;;;;;4936698;29;20036;-88
2021/04/29 06:34:54;;;;;;;27.60;17.67;;;333.60;2329.60;;;;;;4936328;29;20500;-87
2021/04/29 06:37:19;;;;;;;25.48;17.42;;;333.10;2329.60;;;;;;4936568;29;20094;-83
2021/04/29 06:39:46;;;;;;;26.13;18.38;;;333.20;2329.60;;;;;;4936245;29;20095;-83
2021/04/29 06:42:13;;;;;;;22.17;16.10;;;333.20;2329.60;;;;;;4936041;29;20039;-82
2021/04/29 06:44:39;;;;;;;24.85;16.98;;;333.10;2329.60;;;;;;4936201;29;20042;-83
2021/04/29 06:47:05;;;;;;;30.95;17.23;;;333.10;2329.60;;;;;;4936991;29;20038;-83
2021/04/29 06:49:31;;;;;;;32.83;19.92;;;333.00;2329.60;;;;;;4936221;29;20036;-82
2021/04/29 06:51:57;;;;;;;29.92;20.27;;;333.10;2329.60;;;;;;4936891;29;20038;-90
2021/04/29 06:54:22;;;;;;;30.45;19.05;;;333.30;2329.60;;;;;;4938686;29;20081;-93
2021/04/29 06:56:48;;;;;;;29.23;18.63;;;333.40;2329.60;;;;;;4937546;29;20488;-92
2021/04/29 06:59:14;;;;;;;31.88;19.08;;;333.30;2329.60;;;;;;4946825;29;20110;-91
2021/04/29 07:01:40;;;;;;;51.13;21.25;;;333.50;2329.60;;;;;;4951668;29;20040;-91
2021/04/29 07:04:08;;;;;;;30.10;18.00;;;333.60;2329.60;;;;;;4956902;28;20024;-90
2021/04/29 07:06:35;;;;;;;30.75;18.30;;;333.70;2329.60;;;;;;4959140;28;20039;-91
2021/04/29 07:09:02;;;;;;;24.13;18.10;;;333.70;2329.60;;;;;;4957739;29;20038;-87
2021/04/29 07:11:30;;;;;;;29.55;18.73;;;333.50;2329.60;;;;;;4958188;28;20063;-87
2021/04/29 07:13:57;;;;;;;49.58;31.00;;;333.70;2329.60;;;;;;4937081;29;20036;-89
2021/04/29 07:16:22;;;;;;;33.33;22.30;;;358.50;2329.60;;;;;;4936800;29;20042;-88
2021/04/29 07:18:49;;;;;;;32.47;21.17;;;358.70;2329.60;;;;;;4936917;29;20039;-88
2021/04/29 07:21:14;;;;;;;39.92;24.95;;;358.60;2329.60;;;;;;4936306;29;20032;-86
2021/04/29 07:23:40;;;;;;;29.70;18.30;;;358.70;2329.60;;;;;;4938308;29;20078;-89
2021/04/29 07:26:06;;;;;;;36.72;23.10;;;358.80;2329.60;;;;;;4940031;29;20035;-89
2021/04/29 07:28:32;;;;;;;30.10;21.20;;;358.70;2329.60;;;;;;4938112;29;20551;-89
2021/04/29 07:30:58;;;;;;;28.27;20.27;;;358.70;2329.60;;;;;;4936727;29;20555;-88
2021/04/29 07:33:23;;;;;;;32.92;22.30;;;358.80;2329.60;;;;;;4936465;29;20088;-88
2021/04/29 07:35:50;;;;;;;31.27;22.00;;;358.90;2329.60;;;;;;4940008;29;20051;-90
2021/04/29 07:38:19;;;;;;;31.33;23.17;;;358.90;2304.00;;;;;;4942585;29;20507;-87
2021/04/29 07:40:45;;;;;;;30.00;20.55;;;358.90;2329.60;;;;;;4943794;29;20551;-89
2021/04/29 07:43:10;;;;;;;42.03;21.05;;;359.00;2329.60;;;;;;4951606;29;20056;-89
2021/04/29 07:45:36;;;;;;;35.78;20.60;;;359.10;2329.60;;;;;;4961474;29;20083;-87
2021/04/29 07:48:03;;;;;;;32.22;22.67;;;359.30;2304.00;;;;;;4961553;29;20044;-88
2021/04/29 07:50:31;;;;;;;28.15;22.83;;;359.30;2304.00;;;;;;4961884;29;20027;-88
2021/04/29 07:52:57;;;;;;;34.88;22.50;;;384.10;2252.80;;;;;;4960630;29;20043;-89
2021/04/29 07:55:23;;;;;;;32.50;23.48;;;384.30;2252.80;;;;;;4960379;29;20039;-90
2021/04/29 07:57:48;;;;;;;30.13;22.08;;;384.40;2227.20;;;;;;4957866;29;20044;-89
2021/04/29 08:00:15;;;;;;;28.58;20.52;;;384.60;2227.20;;;;;;4942329;29;20044;-90
2021/04/29 08:02:41;;;;;;;33.67;22.30;;;384.80;2201.60;;;;;;4940971;29;20118;-91
2021/04/29 08:05:09;;;;;;;29.83;21.70;;;384.70;2201.60;;;;;;4940934;29;20540;-90
2021/04/29 08:07:35;;;;;;;27.98;21.38;;;409.70;2278.40;;;;;;4941620;29;20048;-92
2021/04/29 08:10:00;;;;;;;23.17;18.88;;;409.90;2227.20;;;;;;4939781;29;20460;-89
2021/04/29 08:12:26;;;;;;;30.20;20.23;;;410.00;2201.60;;;;;;4940963;29;20039;-91
2021/04/29 08:14:56;;;;;;;31.73;19.83;;;410.20;2124.80;;;;;;4940737;29;20152;-90
2021/04/29 08:17:22;;;;;;;39.63;23.92;;;410.00;2099.20;;;;;;4940252;29;20032;-89
2021/04/29 08:19:47;;;;;;;26.35;19.77;;;410.30;2124.80;;;;;;4940288;29;20046;-89
2021/04/29 08:22:13;;;;;;;33.70;21.35;;;410.50;2150.40;;;;;;4939276;29;20062;-90
2021/04/29 08:24:39;;;;;;;27.88;18.77;;;435.40;2201.60;;;;;;4938335;29;20117;-90
2021/04/29 08:27:05;;;;;;;26.08;20.23;;;435.70;2150.40;;;;;;4940164;29;20047;-88
2021/04/29 08:29:30;;;;;;;31.58;23.88;;;410.50;2048.00;;;;;;4940385;29;20059;-89
2021/04/29 08:31:56;;;;;;;36.13;23.50;;;410.50;2150.40;;;;;;4940052;29;20433;-88
2021/04/29 08:34:24;;;;;;;26.48;20.98;;;435.30;2099.20;;;;;;4940280;29;20047;-85
2021/04/29 08:36:50;;;;;;;29.52;22.00;;;410.40;2073.60;;;;;;4940678;29;20036;-86
2021/04/29 08:39:16;;;;;;;30.48;21.90;;;410.50;2124.80;;;;;;4938981;29;20043;-86
2021/04/29 08:41:43;;;;;;;32.28;22.25;;;410.00;2099.20;;;;;;4938799;29;20472;-85
2021/04/29 08:44:10;;;;;;;32.22;22.63;;;410.40;2124.80;;;;;;4938270;29;20039;-85
2021/04/29 08:46:35;;;;;;;27.20;21.55;;;435.30;2150.40;;;;;;4938936;29;20036;-83
2021/04/29 08:49:02;;;;;;;29.30;21.55;;;435.60;2124.80;;;;;;4937864;29;20054;-84
2021/04/29 08:51:28;;;;;;;28.85;21.67;;;435.80;2048.00;;;;;;4937630;29;20075;-82
2021/04/29 08:53:55;;;;;;;23.33;17.40;;;460.80;2022.40;;;;;;4938209;29;20063;-84
2021/04/29 08:56:25;;;;;;;24.50;16.67;;;460.80;2073.60;;;;;;4939010;29;20499;-85
2021/04/29 08:58:57;;;;;;;25.02;16.67;;;461.10;2048.00;;;;;;4940545;29;20046;-82
2021/04/29 09:01:24;;;;;;;20.83;15.68;;;461.40;1996.80;;;;;;4939848;29;20436;-84
2021/04/29 09:03:50;;;;;;;22.75;15.40;;;461.30;1920.00;;;;;;4938668;29;20032;-86
2021/04/29 09:06:29;;;;;;;21.10;17.25;;;460.90;1971.20;;;;;;4938219;29;20031;-86
2021/04/29 09:08:58;;;;;;;29.75;21.33;;;461.10;2048.00;;;;;;4937236;29;20138;-83
2021/04/29 09:11:23;;;;;;;27.33;17.20;;;460.80;1996.80;;;;;;4937596;29;20031;-83
2021/04/29 09:14:08;;;;;;;27.08;16.45;;;461.30;2048.00;;;;;;4937242;29;20481;-83
2021/04/29 09:16:42;;;;;;;29.27;20.20;;;461.50;1920.00;;;;;;4937356;29;20042;-83
2021/04/29 09:19:21;;;;;;;24.75;17.42;;;461.70;1920.00;;;;;;4937305;29;20059;-85
2021/04/29 09:21:47;;;;;;;25.45;20.10;;;461.60;1920.00;;;;;;4937008;29;20028;-84
2021/04/29 09:24:13;;;;;;;29.85;21.63;;;461.40;1971.20;;;;;;4936837;29;20074;-84
2021/04/29 09:26:40;;;;;;;23.95;18.70;;;461.30;1971.20;;;;;;4937341;29;20039;-82
2021/04/29 09:29:09;;;;;;;29.55;20.80;;;461.10;1996.80;;;;;;4938435;29;20051;-83
2021/04/29 09:31:40;;;;;;;26.65;19.00;;;461.20;1996.80;;;;;;4936986;29;20433;-83
2021/04/29 09:34:06;;;;;;;29.15;22.00;;;461.50;1996.80;;;;;;4936652;29;20377;-83
2021/04/29 09:36:35;;;;;;;25.92;19.65;;;486.40;1920.00;;;;;;4936552;29;20051;-83
2021/04/29 09:39:11;;;;;;;25.45;17.52;;;486.70;1971.20;;;;;;4936558;29;20040;-83
2021/04/29 09:41:41;;;;;;;31.38;19.17;;;486.50;1920.00;;;;;;4936984;29;20039;-83
2021/04/29 09:44:16;;;;;;;26.20;17.35;;;487.00;1945.60;;;;;;4936863;29;20151;-83
2021/04/29 09:46:44;;;;;;;25.38;18.30;;;487.30;1868.80;;;;;;4936686;29;20044;-84
2021/04/29 09:49:30;;;;;;;22.83;16.52;;;512.20;1868.80;;;;;;4936597;29;20067;-83
2021/04/29 09:51:59;;;;;;;34.83;19.63;;;512.30;1843.20;;;;;;4936737;29;20551;-85
2021/04/29 09:54:36;;;;;;;21.33;16.02;;;512.70;1817.60;;;;;;4936361;29;20074;-84
2021/04/29 09:57:12;;;;;;;28.05;18.38;;;512.40;1868.80;;;;;;4936594;29;20042;-84
2021/04/29 09:59:48;;;;;;;24.63;15.98;;;512.60;1843.20;;;;;;4936512;29;20043;-85
2021/04/29 10:02:16;;;;;;;22.23;15.90;;;512.40;1817.60;;;;;;4935814;29;20031;-82
2021/04/29 10:04:43;;;;;;;25.83;15.48;;;512.90;1817.60;;;;;;4935740;29;20063;-84
2021/04/29 10:07:10;;;;;;;24.73;16.83;;;512.80;1817.60;;;;;;4936193;29;20032;-85
2021/04/29 10:09:37;;;;;;;21.33;17.20;;;537.70;1792.00;;;;;;4936009;29;20044;-83
2021/04/29 10:12:11;;;;;;;23.50;16.77;;;537.80;1715.20;;;;;;4936045;29;20118;-85
2021/04/29 10:14:42;;;;;;;24.92;18.48;;;538.10;1740.80;;;;;;4936291;29;20457;-83
2021/04/29 10:17:10;;;;;;;23.55;17.50;;;537.80;1740.80;;;;;;4936320;29;20102;-86
2021/04/29 10:19:53;;;;;;;18.02;15.55;;;537.60;1766.40;;;;;;4940686;29;20028;-86
2021/04/29 10:22:19;;;;;;;;;;;538.00;1715.20;;;;;;4937510;29;20062;-80
2021/04/29 10:24:46;;;;;;;26.45;18.27;;;538.50;1792.00;;;;;;4940152;29;20367;-84
2021/04/29 10:27:16;;;;;;;29.73;17.83;;;563.30;1766.40;;;;;;4940276;29;20051;-84
2021/04/29 10:29:43;;;;;;;47.25;21.42;;;563.40;1715.20;;;;;;4946007;29;20032;-82
2021/04/29 10:32:12;;;;;;;25.95;18.88;;;563.30;1740.80;;;;;;4955899;28;20043;-83
2021/04/29 10:34:43;;;;;;;38.75;20.17;;;563.40;1715.20;;;;;;4952106;29;20173;-82
2021/04/29 10:37:20;;;;;;;24.92;17.05;;;563.40;1766.40;;;;;;4953851;29;20583;-84
2021/04/29 10:40:06;;;;;;;24.42;14.05;;;563.30;1740.80;;;;;;4945199;29;20040;-83
2021/04/29 10:42:43;;;;;;;22.02;14.00;;;538.50;1792.00;;;;;;4936163;29;20032;-85
2021/04/29 10:45:11;;;;;;;18.20;13.73;;;538.30;1843.20;;;;;;4935323;29;20043;-82
2021/04/29 10:47:38;;;;;;;16.55;12.65;;;538.50;1868.80;;;;;;4936381;29;20079;-83
2021/04/29 10:50:10;;;;;;;16.83;11.98;;;538.30;1843.20;;;;;;4935358;29;20036;-82
2021/04/29 10:52:55;;;;;;;16.13;10.73;;;538.20;1868.80;;;;;;4935544;29;20038;-82
2021/04/29 10:55:28;;;;;;;17.75;10.98;;;563.40;1843.20;;;;;;4935158;29;20432;-82
2021/04/29 10:57:55;;;;;;;17.60;10.63;;;563.60;1868.80;;;;;;4935629;29;20032;-82
2021/04/29 11:00:21;;;;;;;16.90;10.65;;;588.80;1868.80;;;;;;4935567;29;20062;-82
2021/04/29 11:03:07;;;;;;;16.85;9.07;;;589.40;1792.00;;;;;;4935149;29;20032;-82
2021/04/29 11:05:35;;;;;;;27.02;12.13;;;614.40;1740.80;;;;;;4935165;29;20455;-82
2021/04/29 11:08:12;;;;;;;34.67;13.27;;;614.60;1740.80;;;;;;4934922;29;20043;-83
2021/04/29 11:10:39;;;;;;;14.10;7.43;;;614.80;1715.20;;;;;;4935259;29;20560;-84
2021/04/29 11:13:06;;;;;;;11.30;7.32;;;614.50;1536.00;;;;;;4935525;29;20083;-83
2021/04/29 11:15:37;;;;;;;10.27;7.50;;;589.70;1587.20;;;;;;4936987;29;20032;-83
2021/04/29 11:18:20;;;;;;;17.23;8.98;;;589.70;1561.60;;;;;;4939184;29;20031;-83
2021/04/29 11:20:54;;;;;;;16.83;9.95;;;614.60;1664.00;;;;;;4939408;29;20028;-83
2021/04/29 11:23:27;;;;;;;18.88;13.48;;;614.50;1587.20;;;;;;4940340;29;20044;-83
2021/04/29 11:26:10;;;;;;;10.05;8.80;;;614.70;1561.60;;;;;;4938893;29;20036;-84
2021/04/29 11:28:36;;;;;;;12.73;10.65;;;614.60;1561.60;;;;;;4939027;29;20052;-83
2021/04/29 11:31:03;;;;;;;11.95;7.82;;;615.00;1638.40;;;;;;4939182;29;20036;-83
2021/04/29 11:33:47;;;;;;;13.55;7.85;;;615.10;1612.80;;;;;;4939168;29;20091;-82
2021/04/29 11:36:18;;;;;;;17.10;8.57;;;615.30;1638.40;;;;;;4939194;29;20051;-85
2021/04/29 11:39:01;;;;;;;15.27;8.15;;;615.10;1561.60;;;;;;4938662;29;20087;-82
2021/04/29 11:41:29;;;;;;;15.25;7.45;;;615.00;1612.80;;;;;;4940219;29;20042;-82
2021/04/29 11:44:05;;;;;;;14.82;7.63;;;614.80;1587.20;;;;;;4939029;29;20392;-82
2021/04/29 11:46:35;;;;;;;21.70;10.50;;;614.60;1587.20;;;;;;4938719;29;20059;-84
2021/04/29 11:49:06;;;;;;;28.98;16.83;;;614.40;1664.00;;;;;;4938535;29;20114;-81
2021/04/29 11:51:43;;;;;;;20.88;11.15;;;589.70;1689.60;;;;;;4938567;29;20090;-82
2021/04/29 11:54:09;;;;;;;18.85;8.95;;;589.70;1664.00;;;;;;4938134;29;20194;-82
2021/04/29 11:56:43;;;;;;;14.27;7.82;;;589.50;1638.40;;;;;;4938539;29;20134;-83
2021/04/29 11:59:12;;;;;;;12.80;7.45;;;589.20;1664.00;;;;;;4938536;29;20067;-83
2021/04/29 12:01:39;;;;;;;22.13;19.83;;;589.10;1689.60;;;;;;4938131;29;20130;-84
2021/04/29 12:04:20;;;;;;;16.60;10.63;;;564.10;1766.40;;;;;;4938358;29;20090;-83
2021/04/29 12:06:54;;;;;;;17.48;12.48;;;588.80;1766.40;;;;;;4939782;29;20036;-84